Terminal Aerodrome Forecast
Issued by NWS

Home | Current Version | Previous Version | Text Only | Print | Product List | Glossary On
Versions: 1 2 3 4 5 6 7 8 9 10 11 12 13 14 15 16 17 18 19 20 21 22 23 24 25 26
000
FTUS44 KBMX 270059 CCA
TAFTOI
TAF COR
KTOI 270059Z 2700/2724 15006KT P6SM VCSH BKN007
     FM270100 VRB03KT P6SM SCT007 OVC200
     FM270900 VRB02KT P6SM SCT002 BKN012
     FM271000 VRB02KT 3SM BR BKN004 BKN012
     FM271300 VRB04KT P6SM BKN015
     FM271630 12007KT P6SM BKN035 BKN110
     FM271900 13008KT P6SM VCTS BKN035CB=

USA.gov is the U.S. government's official web portal to all federal, state and local government web resources and services.